createdAt,value
2023-03-17T05:00:39.126Z,1.48
2023-03-17T05:01:39.285Z,1.45
2023-03-17T05:02:39.256Z,1.47
2023-03-17T05:03:39.006Z,1.44
2023-03-17T05:04:39.054Z,1.44
2023-03-17T05:05:38.991Z,1.44
2023-03-17T05:06:39.002Z,1.42
2023-03-17T05:07:38.950Z,1.41
2023-03-17T05:08:38.960Z,1.41
2023-03-17T05:09:39.001Z,1.41
2023-03-17T05:10:38.930Z,1.41
2023-03-17T05:11:38.901Z,1.37
2023-03-17T05:12:38.909Z,1.37
2023-03-17T05:13:45.922Z,1.37
2023-03-17T05:14:38.890Z,1.40
2023-03-17T05:15:38.894Z,1.41
2023-03-17T05:16:38.980Z,1.40
2023-03-17T05:17:38.840Z,1.37
2023-03-17T05:18:38.841Z,1.34
2023-03-17T05:19:38.837Z,1.34
2023-03-17T05:20:38.936Z,1.33
2023-03-17T05:21:38.798Z,1.36
2023-03-17T05:22:38.878Z,1.37
2023-03-17T05:23:38.761Z,1.37
2023-03-17T05:24:38.770Z,1.36
2023-03-17T05:25:38.750Z,1.36
2023-03-17T05:26:38.821Z,1.36
2023-03-17T05:27:38.710Z,1.34
2023-03-17T05:28:38.726Z,1.34
2023-03-17T05:29:38.708Z,1.34
2023-03-17T05:30:38.715Z,1.33
2023-03-17T05:31:38.658Z,1.30
2023-03-17T05:32:38.759Z,1.30
2023-03-17T05:33:38.638Z,1.29
2023-03-17T05:34:38.655Z,1.27
2023-03-17T05:35:38.637Z,1.26
2023-03-17T05:36:38.632Z,1.23
2023-03-17T05:37:38.661Z,1.27
2023-03-17T05:38:38.667Z,1.32
2023-03-17T05:39:38.570Z,1.36
2023-03-17T05:40:38.576Z,1.36
2023-03-17T05:41:38.654Z,1.36
2023-03-17T05:42:38.548Z,1.37
2023-03-17T05:43:38.521Z,1.36
2023-03-17T05:44:38.575Z,1.37
2023-03-17T05:45:38.493Z,1.34
2023-03-17T05:46:38.484Z,1.36
2023-03-17T05:47:38.468Z,1.34
2023-03-17T05:48:38.491Z,1.33
2023-03-17T05:49:38.431Z,1.32
2023-03-17T05:50:38.472Z,1.32
2023-03-17T05:51:38.440Z,1.32
2023-03-17T05:52:38.417Z,1.34
2023-03-17T05:53:38.394Z,1.36
2023-03-17T05:54:38.396Z,1.42
2023-03-17T05:55:38.412Z,1.50
2023-03-17T05:56:38.368Z,1.52
2023-03-17T05:57:38.349Z,1.59
2023-03-17T05:58:38.399Z,1.62
2023-03-17T05:59:38.316Z,1.68
2023-03-17T06:00:38.374Z,1.72
2023-03-17T06:01:38.284Z,1.77
2023-03-17T06:02:38.286Z,1.83
2023-03-17T06:03:38.356Z,1.88
2023-03-17T06:04:38.282Z,1.93
2023-03-17T06:05:38.298Z,2.00
2023-03-17T06:06:38.249Z,2.07
2023-03-17T06:07:50.770Z,2.14
2023-03-17T06:08:39.240Z,2.17
2023-03-17T06:09:38.188Z,2.23
2023-03-17T06:10:38.220Z,2.25
2023-03-17T06:11:38.206Z,2.31
2023-03-17T06:12:38.194Z,2.36
2023-03-17T06:13:38.167Z,2.43
2023-03-17T06:14:38.153Z,2.49
2023-03-17T06:15:38.195Z,2.53
2023-03-17T06:16:38.125Z,2.59
2023-03-17T06:17:38.081Z,2.69
2023-03-17T06:18:38.117Z,2.77
2023-03-17T06:19:38.083Z,2.85
2023-03-17T06:20:38.262Z,2.96
2023-03-17T06:21:38.048Z,3.02
2023-03-17T06:22:39.722Z,3.10
2023-03-17T06:23:38.014Z,3.13
2023-03-17T06:24:38.028Z,3.18
2023-03-17T06:25:37.982Z,3.21
2023-03-17T06:26:38.115Z,3.28
2023-03-17T06:27:37.987Z,3.33
2023-03-17T06:28:37.972Z,3.51
2023-03-17T06:29:37.942Z,3.91
2023-03-17T06:30:40.405Z,4.37
2023-03-17T06:31:38.044Z,4.78
2023-03-17T06:32:38.073Z,5.03
2023-03-17T06:33:37.888Z,5.17
2023-03-17T06:34:37.890Z,5.17
2023-03-17T06:35:37.934Z,5.15
2023-03-17T06:36:38.649Z,5.12
2023-03-17T06:37:37.846Z,5.09
2023-03-17T06:38:37.928Z,4.99
2023-03-17T06:39:37.820Z,4.86
2023-03-17T06:40:37.942Z,4.80
2023-03-17T06:41:37.800Z,4.72
2023-03-17T06:42:37.840Z,4.72
2023-03-17T06:43:37.789Z,4.75
2023-03-17T06:44:37.879Z,4.82
2023-03-17T06:45:37.763Z,5.00
2023-03-17T06:46:37.845Z,5.07
2023-03-17T06:47:37.731Z,5.36
2023-03-17T06:48:37.733Z,5.75
2023-03-17T06:49:37.680Z,6.15
2023-03-17T06:50:37.732Z,6.59
2023-03-17T06:51:37.781Z,6.99
2023-03-17T06:52:37.684Z,7.27
2023-03-17T06:53:37.633Z,7.52
2023-03-17T06:54:37.672Z,7.89
2023-03-17T06:55:37.693Z,8.26
2023-03-17T06:56:37.649Z,8.71
2023-03-17T06:57:37.577Z,9.08
2023-03-17T06:58:37.581Z,9.02
2023-03-17T06:59:37.551Z,9.26
2023-03-17T07:00:37.621Z,9.58
2023-03-17T07:01:37.585Z,9.66
2023-03-17T07:02:37.563Z,9.74
2023-03-17T07:03:38.541Z,9.75
2023-03-17T07:04:37.605Z,9.99
2023-03-17T07:05:37.504Z,10.11
2023-03-17T07:06:37.562Z,10.55
2023-03-17T07:07:37.452Z,10.73
2023-03-17T07:08:37.546Z,10.96
2023-03-17T07:09:37.432Z,11.14
2023-03-17T07:10:37.434Z,11.15
2023-03-17T07:11:37.424Z,11.27
2023-03-17T07:12:37.684Z,11.28
2023-03-17T07:13:37.384Z,11.14
2023-03-17T07:14:37.392Z,11.25
2023-03-17T07:15:37.378Z,10.96
2023-03-17T07:16:37.418Z,11.06
2023-03-17T07:17:37.369Z,11.11
2023-03-17T07:18:37.305Z,11.07
2023-03-17T07:19:37.342Z,11.22
2023-03-17T07:20:37.284Z,11.22
2023-03-17T07:21:37.319Z,11.17
2023-03-17T07:22:37.255Z,11.32
2023-03-17T07:23:37.337Z,11.32
2023-03-17T07:24:37.247Z,11.39
2023-03-17T07:25:37.236Z,11.44
2023-03-17T07:26:37.224Z,10.84
2023-03-17T07:27:37.337Z,10.30
2023-03-17T07:28:37.183Z,10.22
2023-03-17T07:29:37.235Z,10.40
2023-03-17T07:30:37.188Z,10.61
2023-03-17T07:31:37.225Z,10.79
2023-03-17T07:32:37.163Z,10.94
2023-03-17T07:33:37.123Z,10.91
2023-03-17T07:34:37.098Z,10.88
2023-03-17T07:35:37.153Z,10.81
2023-03-17T07:36:37.076Z,10.78
2023-03-17T07:37:37.085Z,10.74
2023-03-17T07:38:37.041Z,10.71
2023-03-17T07:39:37.059Z,10.76
2023-03-17T07:40:37.081Z,10.85
2023-03-17T07:41:37.025Z,10.81
2023-03-17T07:42:37.000Z,10.89
2023-03-17T07:43:37.008Z,11.00
2023-03-17T07:44:36.973Z,11.09
2023-03-17T07:45:37.115Z,11.10
2023-03-17T07:46:37.004Z,10.94
2023-03-17T07:47:36.968Z,10.86
2023-03-17T07:48:36.928Z,10.88
2023-03-17T07:49:41.688Z,11.03
2023-03-17T07:50:37.905Z,11.25
2023-03-17T07:51:36.918Z,11.36
2023-03-17T07:52:36.941Z,11.43
2023-03-17T07:53:36.912Z,11.39
2023-03-17T07:54:36.838Z,11.18
2023-03-17T07:55:36.846Z,11.29
2023-03-17T07:56:36.844Z,11.54
2023-03-17T07:57:36.865Z,11.61
2023-03-17T07:58:36.840Z,11.58
2023-03-17T07:59:36.822Z,11.65
2023-03-17T08:00:36.813Z,11.65
2023-03-17T08:01:36.874Z,11.67
2023-03-17T08:02:36.761Z,11.52
2023-03-17T08:03:37.699Z,11.29
2023-03-17T08:04:36.920Z,11.15
2023-03-17T08:05:36.733Z,11.22
2023-03-17T08:06:36.683Z,11.07
2023-03-17T08:07:36.705Z,11.02
2023-03-17T08:08:36.655Z,11.18
2023-03-17T08:09:36.676Z,11.22
2023-03-17T08:10:36.800Z,11.40
2023-03-17T08:11:36.680Z,11.43
2023-03-17T08:12:36.669Z,11.58
2023-03-17T08:13:36.622Z,11.55
2023-03-17T08:14:36.599Z,11.43
2023-03-17T08:15:36.708Z,11.36
2023-03-17T08:16:36.667Z,11.29
2023-03-17T08:17:36.603Z,11.33
2023-03-17T08:18:36.521Z,11.32
2023-03-17T08:19:36.525Z,11.32
2023-03-17T08:20:36.538Z,11.22
2023-03-17T08:21:36.528Z,11.11
2023-03-17T08:22:36.549Z,10.92
2023-03-17T08:23:36.484Z,10.79
2023-03-17T08:24:36.477Z,10.60
2023-03-17T08:25:36.482Z,10.38
2023-03-17T08:26:36.500Z,10.26
2023-03-17T08:27:36.462Z,10.17
2023-03-17T08:28:36.477Z,10.09
2023-03-17T08:29:36.425Z,10.08
2023-03-17T08:30:36.819Z,10.08
2023-03-17T08:31:36.520Z,10.08
2023-03-17T08:32:36.411Z,10.12
2023-03-17T08:33:36.434Z,10.12
2023-03-17T08:34:36.387Z,10.17
2023-03-17T08:35:36.350Z,10.07
2023-03-17T08:36:36.336Z,9.99
2023-03-17T08:37:36.301Z,9.93
2023-03-17T08:38:36.258Z,9.90
2023-03-17T08:39:36.272Z,9.87
2023-03-17T08:40:36.291Z,9.86
2023-03-17T08:41:36.250Z,9.79
2023-03-17T08:42:36.216Z,9.83
2023-03-17T08:43:36.238Z,9.83
2023-03-17T08:44:36.199Z,9.87
2023-03-17T08:45:36.220Z,9.89
2023-03-17T08:46:36.167Z,9.94
2023-03-17T08:47:36.183Z,9.97
2023-03-17T08:48:36.137Z,9.91
2023-03-17T08:49:36.178Z,9.91
2023-03-17T08:50:36.175Z,9.93
2023-03-17T08:51:36.140Z,9.99
2023-03-17T08:52:36.213Z,10.05
2023-03-17T08:53:36.094Z,10.12
2023-03-17T08:54:36.122Z,10.08
2023-03-17T08:55:36.110Z,10.09
2023-03-17T08:56:36.044Z,10.08
2023-03-17T08:57:36.029Z,10.09
2023-03-17T08:58:36.019Z,10.08
2023-03-17T08:59:36.024Z,10.15
2023-03-17T09:00:36.063Z,10.15
2023-03-17T09:01:36.093Z,10.22
2023-03-17T09:02:36.021Z,10.30
2023-03-17T09:03:36.047Z,10.36
2023-03-17T09:04:37.232Z,10.47
2023-03-17T09:05:38.336Z,10.59
2023-03-17T09:06:35.956Z,10.66
2023-03-17T09:07:35.968Z,10.71
2023-03-17T09:08:35.905Z,10.76
2023-03-17T09:09:35.880Z,10.85
2023-03-17T09:10:35.852Z,10.89
2023-03-17T09:11:35.855Z,10.92
2023-03-17T09:12:35.881Z,10.91
2023-03-17T09:13:35.821Z,10.94
2023-03-17T09:14:43.499Z,10.97
2023-03-17T09:15:36.887Z,10.88
2023-03-17T09:16:35.794Z,10.96
2023-03-17T09:17:35.768Z,10.99
2023-03-17T09:18:35.807Z,10.99
2023-03-17T09:19:35.735Z,10.99
2023-03-17T09:20:35.713Z,11.09
2023-03-17T09:21:35.706Z,11.21
2023-03-17T09:22:35.683Z,11.25
2023-03-17T09:23:35.687Z,11.36
2023-03-17T09:24:35.693Z,11.43
2023-03-17T09:25:35.681Z,11.32
2023-03-17T09:26:35.628Z,11.24
2023-03-17T09:27:35.623Z,11.18
2023-03-17T09:28:35.602Z,11.22
2023-03-17T09:29:35.636Z,11.28
2023-03-17T09:30:35.603Z,11.37
2023-03-17T09:31:35.608Z,11.46
2023-03-17T09:32:35.583Z,11.54
2023-03-17T09:33:35.558Z,11.64
2023-03-17T09:34:35.547Z,11.73
2023-03-17T09:35:35.567Z,11.83
2023-03-17T09:36:35.524Z,11.90
2023-03-17T09:37:35.489Z,11.96
2023-03-17T09:38:35.469Z,11.91
2023-03-17T09:39:35.528Z,11.91
2023-03-17T09:40:35.750Z,11.99
2023-03-17T09:41:35.456Z,11.94
2023-03-17T09:42:35.432Z,12.01
2023-03-17T09:43:35.419Z,12.05
2023-03-17T09:44:35.384Z,12.12
2023-03-17T09:45:35.428Z,12.13
2023-03-17T09:46:35.423Z,12.21
2023-03-17T09:47:35.378Z,12.29
2023-03-17T09:48:35.339Z,12.42
2023-03-17T09:49:35.357Z,12.54
2023-03-17T09:50:35.497Z,12.65
2023-03-17T09:51:35.329Z,12.82
2023-03-17T09:52:35.296Z,12.86
2023-03-17T09:53:35.287Z,13.04
2023-03-17T09:54:35.268Z,13.19
2023-03-17T09:55:35.297Z,13.26
2023-03-17T09:56:35.279Z,13.44
2023-03-17T09:57:35.238Z,13.57
2023-03-17T09:58:35.217Z,13.63
2023-03-17T09:59:35.237Z,13.73
2023-03-17T10:00:35.238Z,13.85
2023-03-17T10:01:35.221Z,14.02
2023-03-17T10:02:35.156Z,14.10
2023-03-17T10:03:35.166Z,14.22
2023-03-17T10:04:35.145Z,14.33
2023-03-17T10:05:35.636Z,14.46
2023-03-17T10:06:35.135Z,14.39
2023-03-17T10:07:35.143Z,14.47
2023-03-17T10:08:35.080Z,14.57
2023-03-17T10:09:35.092Z,14.69
2023-03-17T10:10:35.159Z,14.72
2023-03-17T10:11:35.080Z,14.61
2023-03-17T10:12:35.051Z,14.57
2023-03-17T10:13:35.079Z,14.60
2023-03-17T10:14:34.997Z,14.60
2023-03-17T10:15:35.088Z,14.52
2023-03-17T10:16:35.035Z,14.45
2023-03-17T10:17:35.002Z,14.33
2023-03-17T10:18:35.077Z,14.35
2023-03-17T10:19:35.148Z,14.35
2023-03-17T10:20:34.929Z,14.40
2023-03-17T10:21:34.980Z,14.45
2023-03-17T10:22:34.922Z,14.54
2023-03-17T10:23:34.919Z,14.64
2023-03-17T10:24:34.860Z,14.70
2023-03-17T10:25:35.054Z,14.75
2023-03-17T10:26:34.870Z,14.73
2023-03-17T10:27:34.900Z,14.72
2023-03-17T10:28:34.835Z,14.68
2023-03-17T10:29:34.831Z,14.65
2023-03-17T10:30:34.861Z,14.75
2023-03-17T10:31:34.937Z,14.92
2023-03-17T10:32:34.807Z,15.10
2023-03-17T10:33:34.757Z,15.27
2023-03-17T10:34:37.743Z,15.27
2023-03-17T10:35:34.793Z,15.13
2023-03-17T10:36:34.837Z,15.13
2023-03-17T10:37:34.718Z,15.27
2023-03-17T10:38:34.689Z,15.39
2023-03-17T10:39:34.690Z,15.43
2023-03-17T10:40:34.717Z,15.60
2023-03-17T10:41:34.656Z,15.72
2023-03-17T10:42:34.629Z,15.76
2023-03-17T10:43:34.638Z,15.82
2023-03-17T10:44:34.623Z,16.04
2023-03-17T10:45:34.661Z,16.25
2023-03-17T10:46:34.641Z,16.31
2023-03-17T10:47:34.590Z,16.31
2023-03-17T10:48:34.551Z,16.46
2023-03-17T10:49:34.589Z,16.56
2023-03-17T10:50:35.045Z,16.71
2023-03-17T10:51:34.536Z,16.71
2023-03-17T10:52:34.507Z,16.78
2023-03-17T10:53:34.546Z,16.81
2023-03-17T10:54:34.484Z,16.68
2023-03-17T10:55:34.560Z,16.64
2023-03-17T10:56:34.471Z,16.64
2023-03-17T10:57:34.464Z,16.61
2023-03-17T10:58:34.429Z,16.60
2023-03-17T10:59:34.432Z,16.57
2023-03-17T11:00:34.582Z,16.61
2023-03-17T11:01:34.406Z,16.52
2023-03-17T11:02:34.385Z,16.50
2023-03-17T11:03:34.449Z,16.60
2023-03-17T11:04:34.357Z,16.78
2023-03-17T11:05:34.347Z,16.88
2023-03-17T11:06:34.367Z,16.93
2023-03-17T11:07:34.369Z,16.96
2023-03-17T11:08:34.318Z,16.96
2023-03-17T11:09:34.322Z,17.00
2023-03-17T11:10:34.350Z,17.16
2023-03-17T11:11:34.296Z,17.16
2023-03-17T11:12:34.257Z,17.18
2023-03-17T11:13:34.270Z,17.08
2023-03-17T11:14:41.240Z,17.07
2023-03-17T11:15:36.164Z,17.15
2023-03-17T11:16:34.244Z,17.26
2023-03-17T11:17:34.193Z,17.30
2023-03-17T11:18:34.167Z,17.28
2023-03-17T11:19:34.181Z,17.38
2023-03-17T11:20:34.163Z,17.51
2023-03-17T11:21:34.294Z,17.49
2023-03-17T11:22:34.124Z,17.55
2023-03-17T11:23:34.139Z,17.56
2023-03-17T11:24:34.094Z,17.58
2023-03-17T11:25:34.150Z,17.51
2023-03-17T11:26:34.075Z,17.55
2023-03-17T11:27:34.063Z,17.66
2023-03-17T11:28:34.045Z,17.87
2023-03-17T11:29:34.076Z,17.90
2023-03-17T11:30:34.084Z,17.87
2023-03-17T11:31:34.032Z,17.84
2023-03-17T11:32:34.045Z,17.82
2023-03-17T11:33:33.977Z,17.89
2023-03-17T11:34:33.996Z,17.84
2023-03-17T11:35:33.994Z,17.86
2023-03-17T11:36:34.002Z,17.93
2023-03-17T11:37:33.939Z,17.93
2023-03-17T11:38:33.934Z,17.95
2023-03-17T11:39:33.903Z,17.97
2023-03-17T11:40:33.909Z,18.02
2023-03-17T11:41:33.885Z,18.14
2023-03-17T11:42:33.911Z,18.25
2023-03-17T11:43:33.855Z,18.44
2023-03-17T11:44:33.874Z,18.67
2023-03-17T11:45:33.905Z,18.78
2023-03-17T11:46:33.896Z,18.67
2023-03-17T11:47:33.812Z,18.70
2023-03-17T11:48:33.825Z,18.72
2023-03-17T11:49:33.775Z,18.78
2023-03-17T11:50:34.214Z,18.72
2023-03-17T11:51:33.748Z,18.81
2023-03-17T11:52:33.801Z,18.85
2023-03-17T11:53:33.714Z,18.84
2023-03-17T11:54:33.730Z,18.85
2023-03-17T11:55:33.693Z,18.94
2023-03-17T11:56:33.710Z,19.04
2023-03-17T11:57:33.657Z,18.91
2023-03-17T11:58:33.740Z,18.92
2023-03-17T11:59:33.639Z,18.92
2023-03-17T12:00:34.416Z,18.88
2023-03-17T12:01:33.684Z,18.90
2023-03-17T12:02:33.630Z,18.91
2023-03-17T12:03:33.601Z,18.98
2023-03-17T12:04:33.694Z,19.08
2023-03-17T12:05:33.555Z,19.18
2023-03-17T12:06:33.566Z,19.07
2023-03-17T12:07:33.534Z,18.94
2023-03-17T12:08:33.555Z,18.91
2023-03-17T12:09:33.511Z,18.98
2023-03-17T12:10:33.629Z,19.04
2023-03-17T12:11:33.485Z,19.18
2023-03-17T12:12:33.562Z,19.16
2023-03-17T12:13:33.454Z,19.25
2023-03-17T12:14:33.540Z,19.25
2023-03-17T12:15:33.465Z,19.29
2023-03-17T12:16:33.528Z,19.33
2023-03-17T12:17:33.548Z,19.43
2023-03-17T12:18:33.408Z,19.50
2023-03-17T12:19:33.374Z,19.58
2023-03-17T12:20:33.747Z,19.63
2023-03-17T12:21:33.372Z,19.66
2023-03-17T12:22:33.422Z,19.76
2023-03-17T12:23:33.320Z,19.77
2023-03-17T12:24:33.376Z,19.80
2023-03-17T12:25:33.294Z,19.74
2023-03-17T12:26:33.316Z,19.80
2023-03-17T12:27:33.371Z,19.92
2023-03-17T12:28:33.405Z,19.98
2023-03-17T12:29:33.274Z,20.11
2023-03-17T12:30:33.508Z,20.18
2023-03-17T12:31:33.260Z,20.06
2023-03-17T12:32:33.323Z,20.01
2023-03-17T12:33:33.189Z,20.05
2023-03-17T12:34:33.332Z,20.28
2023-03-17T12:35:33.549Z,20.48
2023-03-17T12:36:33.179Z,20.67
2023-03-17T12:37:33.166Z,20.76
2023-03-17T12:38:33.169Z,20.70
2023-03-17T12:39:33.137Z,20.70
2023-03-17T12:40:33.259Z,20.74
2023-03-17T12:41:33.238Z,20.92
2023-03-17T12:42:33.091Z,20.88
2023-03-17T12:43:33.072Z,20.88
2023-03-17T12:44:33.092Z,20.98
2023-03-17T12:45:33.306Z,21.07
2023-03-17T12:46:33.132Z,20.99
2023-03-17T12:47:33.023Z,20.89
2023-03-17T12:48:33.023Z,20.89
2023-03-17T12:49:33.138Z,20.94
2023-03-17T12:50:33.002Z,20.94
2023-03-17T12:51:32.966Z,20.80
2023-03-17T12:52:33.022Z,20.85
2023-03-17T12:53:32.947Z,20.94
2023-03-17T12:54:32.959Z,21.09
2023-03-17T12:55:33.281Z,21.27
2023-03-17T12:56:32.918Z,21.50
2023-03-17T12:57:32.907Z,21.74
2023-03-17T12:58:32.943Z,21.82
2023-03-17T12:59:32.858Z,21.91
2023-03-17T13:00:32.918Z,21.98
2023-03-17T13:01:32.913Z,21.88
2023-03-17T13:02:32.840Z,21.99
2023-03-17T13:03:32.855Z,21.98
2023-03-17T13:04:32.879Z,21.96
2023-03-17T13:05:33.416Z,21.92
2023-03-17T13:06:32.797Z,21.86
2023-03-17T13:07:32.763Z,21.75
2023-03-17T13:08:32.774Z,21.59
2023-03-17T13:09:32.763Z,21.52
2023-03-17T13:10:32.799Z,21.58
2023-03-17T13:11:32.720Z,21.67
2023-03-17T13:12:32.730Z,21.79
2023-03-17T13:13:32.677Z,21.64
2023-03-17T13:14:32.703Z,21.44
2023-03-17T13:15:33.086Z,21.37
2023-03-17T13:16:32.705Z,21.43
2023-03-17T13:17:32.627Z,21.52
2023-03-17T13:18:32.672Z,21.54
2023-03-17T13:19:32.620Z,21.52
2023-03-17T13:20:32.666Z,21.40
2023-03-17T13:21:35.342Z,21.46
2023-03-17T13:22:32.589Z,21.40
2023-03-17T13:23:32.558Z,21.43
2023-03-17T13:24:32.559Z,21.46
2023-03-17T13:25:33.057Z,21.52
2023-03-17T13:26:32.610Z,21.69
2023-03-17T13:27:32.499Z,21.88
2023-03-17T13:28:32.516Z,21.82
2023-03-17T13:29:32.475Z,21.54
2023-03-17T13:30:32.783Z,21.44
2023-03-17T13:31:32.517Z,21.46
2023-03-17T13:32:32.572Z,21.56
2023-03-17T13:33:32.478Z,21.58
2023-03-17T13:34:32.437Z,21.62
2023-03-17T13:35:32.708Z,21.61
2023-03-17T13:36:32.417Z,21.65
2023-03-17T13:37:32.378Z,21.65
2023-03-17T13:38:32.396Z,21.72
2023-03-17T13:39:32.361Z,21.72
2023-03-17T13:40:32.804Z,21.67
2023-03-17T13:41:32.402Z,21.71
2023-03-17T13:42:32.335Z,21.72
2023-03-17T13:43:32.319Z,21.75
2023-03-17T13:44:32.322Z,21.83
2023-03-17T13:45:32.675Z,21.90
2023-03-17T13:46:32.352Z,21.96
2023-03-17T13:47:32.367Z,21.91
2023-03-17T13:48:32.268Z,21.96
2023-03-17T13:49:32.266Z,22.07
2023-03-17T13:50:32.237Z,22.09
2023-03-17T13:51:32.226Z,22.30
2023-03-17T13:52:32.208Z,22.54
2023-03-17T13:53:32.230Z,22.58
2023-03-17T13:54:32.196Z,22.51
2023-03-17T13:55:32.396Z,22.42
2023-03-17T13:56:32.160Z,22.36
2023-03-17T13:57:32.130Z,22.25
2023-03-17T13:58:32.167Z,22.21
2023-03-17T13:59:32.101Z,22.17
2023-03-17T14:00:32.185Z,22.10
2023-03-17T14:01:32.087Z,21.98
2023-03-17T14:02:32.079Z,21.88
2023-03-17T14:03:32.184Z,21.79
2023-03-17T14:04:32.063Z,21.80
2023-03-17T14:05:32.284Z,21.88
2023-03-17T14:06:32.046Z,21.98
2023-03-17T14:07:32.008Z,22.05
2023-03-17T14:08:32.045Z,22.07
2023-03-17T14:09:32.017Z,21.99
2023-03-17T14:10:32.067Z,21.83
2023-03-17T14:11:32.028Z,21.74
2023-03-17T14:12:31.974Z,21.68
2023-03-17T14:13:31.966Z,21.62
2023-03-17T14:14:33.372Z,21.65
2023-03-17T14:15:32.420Z,21.61
2023-03-17T14:16:31.987Z,21.67
2023-03-17T14:17:31.886Z,21.75
2023-03-17T14:18:31.889Z,21.86
2023-03-17T14:19:31.903Z,21.90
2023-03-17T14:20:31.970Z,21.90
2023-03-17T14:21:31.835Z,21.91
2023-03-17T14:22:31.858Z,21.83
2023-03-17T14:23:31.808Z,21.77
2023-03-17T14:24:31.810Z,21.67
2023-03-17T14:25:31.910Z,21.69
2023-03-17T14:26:31.816Z,21.65
2023-03-17T14:27:31.745Z,21.68
2023-03-17T14:28:31.759Z,21.69
2023-03-17T14:29:31.722Z,21.74
2023-03-17T14:30:31.765Z,21.64
2023-03-17T14:31:31.760Z,21.65
2023-03-17T14:32:31.743Z,21.62
2023-03-17T14:33:31.668Z,21.64
2023-03-17T14:34:31.704Z,21.46
2023-03-17T14:35:31.888Z,21.38
2023-03-17T14:36:31.687Z,21.38
2023-03-17T14:37:31.621Z,21.31
2023-03-17T14:38:31.626Z,21.34
2023-03-17T14:39:31.598Z,21.29
2023-03-17T14:40:31.607Z,21.32
2023-03-17T14:41:32.865Z,21.44
2023-03-17T14:42:31.662Z,21.52
2023-03-17T14:43:31.538Z,21.54
2023-03-17T14:44:31.619Z,21.58
2023-03-17T14:45:31.753Z,21.53
2023-03-17T14:46:31.552Z,21.43
2023-03-17T14:47:31.501Z,21.43
2023-03-17T14:48:31.508Z,21.40
2023-03-17T14:49:31.496Z,21.32
2023-03-17T14:50:31.583Z,21.31
2023-03-17T14:51:31.437Z,21.38
2023-03-17T14:52:31.446Z,21.44
2023-03-17T14:53:31.409Z,21.43
2023-03-17T14:54:31.423Z,21.42
2023-03-17T14:55:31.619Z,21.43
2023-03-17T14:56:31.407Z,21.46
2023-03-17T14:57:31.369Z,21.47
2023-03-17T14:58:31.374Z,21.52
2023-03-17T14:59:31.333Z,21.61
2023-03-17T15:00:31.403Z,21.59
2023-03-17T15:01:31.688Z,21.54
2023-03-17T15:02:31.362Z,21.56
2023-03-17T15:03:31.297Z,21.59
2023-03-17T15:04:31.297Z,21.62
2023-03-17T15:05:31.499Z,21.65
2023-03-17T15:06:31.492Z,21.65
2023-03-17T15:07:31.226Z,21.59
2023-03-17T15:08:31.242Z,21.52
2023-03-17T15:09:31.258Z,21.44
2023-03-17T15:10:31.501Z,21.32
2023-03-17T15:11:31.205Z,21.27
2023-03-17T15:12:31.350Z,21.27
2023-03-17T15:13:31.155Z,21.24
2023-03-17T15:14:31.166Z,21.21
2023-03-17T15:15:31.126Z,21.25
2023-03-17T15:16:31.188Z,21.25
2023-03-17T15:17:31.119Z,21.24
2023-03-17T15:18:31.156Z,21.17
2023-03-17T15:19:31.176Z,21.19
2023-03-17T15:20:31.425Z,21.25
2023-03-17T15:21:31.068Z,21.27
2023-03-17T15:22:31.088Z,21.35
2023-03-17T15:23:31.034Z,21.31
2023-03-17T15:24:31.093Z,21.27
2023-03-17T15:25:31.080Z,21.28
2023-03-17T15:26:31.019Z,21.25
2023-03-17T15:27:31.134Z,21.24
2023-03-17T15:28:30.995Z,21.19
2023-03-17T15:29:30.972Z,21.19
2023-03-17T15:30:44.277Z,21.10
2023-03-17T15:31:31.951Z,21.09
2023-03-17T15:32:30.980Z,21.09
2023-03-17T15:33:30.919Z,21.06
2023-03-17T15:34:30.898Z,21.07
2023-03-17T15:35:31.081Z,21.06
2023-03-17T15:36:33.068Z,20.99
2023-03-17T15:37:30.846Z,20.91
2023-03-17T15:38:30.859Z,20.84
2023-03-17T15:39:30.827Z,20.79
2023-03-17T15:40:31.085Z,20.73
2023-03-17T15:41:30.790Z,20.74
2023-03-17T15:42:30.797Z,20.69
2023-03-17T15:43:30.775Z,20.64
2023-03-17T15:44:30.761Z,20.64
2023-03-17T15:45:30.757Z,20.64
2023-03-17T15:46:31.104Z,20.58
2023-03-17T15:47:30.769Z,20.57
2023-03-17T15:48:30.706Z,20.54
2023-03-17T15:49:30.722Z,20.50
2023-03-17T15:50:37.698Z,20.43
2023-03-17T15:51:37.793Z,20.39
2023-03-17T15:52:38.686Z,20.32
2023-03-17T15:53:37.692Z,20.31
2023-03-17T15:54:30.629Z,20.28
2023-03-17T15:55:30.665Z,20.31
2023-03-17T15:56:37.622Z,20.24
2023-03-17T15:57:37.671Z,20.21
2023-03-17T15:58:30.588Z,20.14
2023-03-17T15:59:30.576Z,20.02
2023-03-17T16:00:30.804Z,19.98
2023-03-17T16:01:30.698Z,19.92
2023-03-17T16:02:30.623Z,19.87
2023-03-17T16:03:30.593Z,19.83
2023-03-17T16:04:30.526Z,19.78
2023-03-17T16:05:30.526Z,19.74
2023-03-17T16:06:30.462Z,19.68
2023-03-17T16:07:30.495Z,19.59
2023-03-17T16:08:30.448Z,19.47
2023-03-17T16:09:30.520Z,19.43
2023-03-17T16:10:30.645Z,19.39
2023-03-17T16:11:30.444Z,19.36
2023-03-17T16:12:30.393Z,19.37
2023-03-17T16:13:30.411Z,19.39
2023-03-17T16:14:30.363Z,19.37
2023-03-17T16:15:30.426Z,19.36
2023-03-17T16:16:30.346Z,19.31
2023-03-17T16:17:30.361Z,19.31
2023-03-17T16:18:30.323Z,19.26
2023-03-17T16:19:30.313Z,19.23
2023-03-17T16:20:30.517Z,19.22
2023-03-17T16:21:30.322Z,19.16
2023-03-17T16:22:30.251Z,19.13
2023-03-17T16:23:30.271Z,19.11
2023-03-17T16:24:30.265Z,19.08
2023-03-17T16:25:30.241Z,18.94
2023-03-17T16:26:30.253Z,18.85
2023-03-17T16:27:30.240Z,18.84
2023-03-17T16:28:30.221Z,18.75
2023-03-17T16:29:30.193Z,18.60
2023-03-17T16:30:30.387Z,18.45
2023-03-17T16:31:30.321Z,18.37
2023-03-17T16:32:30.207Z,18.35
2023-03-17T16:33:30.135Z,18.36
2023-03-17T16:34:30.105Z,18.33
2023-03-17T16:35:30.294Z,18.36
2023-03-17T16:36:30.082Z,18.29
2023-03-17T16:37:30.113Z,18.23
2023-03-17T16:38:30.055Z,18.18
2023-03-17T16:39:30.073Z,18.15
2023-03-17T16:40:30.447Z,18.10
2023-03-17T16:41:30.045Z,18.03
2023-03-17T16:42:30.031Z,17.93
2023-03-17T16:43:30.020Z,17.87
2023-03-17T16:44:30.080Z,17.86
2023-03-17T16:45:30.047Z,17.77
2023-03-17T16:46:30.022Z,17.68
2023-03-17T16:47:29.973Z,17.55
2023-03-17T16:48:29.934Z,17.44
2023-03-17T16:49:30.013Z,17.36
2023-03-17T16:50:30.252Z,17.22
2023-03-17T16:51:29.913Z,17.12
2023-03-17T16:52:29.966Z,17.03
2023-03-17T16:53:29.905Z,16.96
2023-03-17T16:54:29.848Z,16.85
2023-03-17T16:55:29.905Z,16.73
2023-03-17T16:56:29.876Z,16.63
2023-03-17T16:57:29.850Z,16.53
2023-03-17T16:58:29.791Z,16.46
2023-03-17T16:59:29.907Z,16.42
2023-03-17T17:00:30.236Z,16.39
2023-03-17T17:01:29.816Z,16.39
2023-03-17T17:02:29.764Z,16.35
2023-03-17T17:03:29.773Z,16.33
2023-03-17T17:04:29.722Z,16.33
2023-03-17T17:05:29.724Z,16.30
2023-03-17T17:06:30.061Z,16.28
2023-03-17T17:07:29.723Z,16.27
2023-03-17T17:08:29.686Z,16.24
2023-03-17T17:09:29.715Z,16.21
2023-03-17T17:10:29.846Z,16.21
2023-03-17T17:11:29.702Z,16.25
2023-03-17T17:12:29.653Z,16.30
2023-03-17T17:13:29.642Z,16.33
2023-03-17T17:14:36.604Z,16.35
2023-03-17T17:15:29.602Z,16.45
2023-03-17T17:16:29.598Z,16.45
2023-03-17T17:17:30.400Z,16.46
2023-03-17T17:18:29.569Z,16.49
2023-03-17T17:19:29.547Z,16.49
2023-03-17T17:20:29.624Z,16.49
2023-03-17T17:21:29.517Z,16.49
2023-03-17T17:22:29.487Z,16.52
2023-03-17T17:23:29.706Z,16.52
2023-03-17T17:24:29.467Z,16.63
2023-03-17T17:25:29.816Z,16.67
2023-03-17T17:26:29.456Z,16.68
2023-03-17T17:27:29.450Z,16.66
2023-03-17T17:28:29.405Z,16.61
2023-03-17T17:29:32.219Z,16.56
2023-03-17T17:30:29.831Z,16.53
2023-03-17T17:31:29.449Z,16.50
2023-03-17T17:32:29.417Z,16.48
2023-03-17T17:33:29.366Z,16.52
2023-03-17T17:34:29.337Z,16.56
2023-03-17T17:35:32.010Z,16.56
2023-03-17T17:36:29.314Z,16.53
2023-03-17T17:37:29.377Z,16.52
2023-03-17T17:38:29.295Z,16.49
2023-03-17T17:39:29.295Z,16.46
2023-03-17T17:40:29.513Z,16.45
2023-03-17T17:41:31.379Z,16.42
2023-03-17T17:42:29.245Z,16.41
2023-03-17T17:43:29.328Z,16.38
2023-03-17T17:44:29.208Z,16.35
2023-03-17T17:45:29.210Z,16.33
2023-03-17T17:46:29.282Z,16.34
2023-03-17T17:47:31.745Z,16.34
2023-03-17T17:48:29.177Z,16.31
2023-03-17T17:49:29.162Z,16.30
2023-03-17T17:50:29.286Z,16.28
2023-03-17T17:51:29.132Z,16.28
2023-03-17T17:52:29.113Z,16.33
2023-03-17T17:53:29.100Z,16.34
2023-03-17T17:54:29.132Z,16.34
2023-03-17T17:55:29.113Z,16.33
2023-03-17T17:56:29.055Z,16.31
2023-03-17T17:57:29.058Z,16.30